sensor_id;sensor_type;location;lat;lon;timestamp;pressure;altitude;pressure_sealevel;temperature;humidity
11808;BME280;5961;42.640;23.380;2023-03-21T00:00:59;93882.28;;;13.75;57.25
11808;BME280;5961;42.640;23.380;2023-03-21T00:03:29;93888.16;;;13.85;56.74
11808;BME280;5961;42.640;23.380;2023-03-21T00:05:56;93878.63;;;13.84;56.97
11808;BME280;5961;42.640;23.380;2023-03-21T00:08:24;93859.91;;;13.84;56.63
11808;BME280;5961;42.640;23.380;2023-03-21T00:10:54;93870.47;;;13.77;56.78
11808;BME280;5961;42.640;23.380;2023-03-21T00:13:23;93872.72;;;13.74;56.83
11808;BME280;5961;42.640;23.380;2023-03-21T00:15:51;93877.72;;;13.76;56.78
11808;BME280;5961;42.640;23.380;2023-03-21T00:18:18;93880.31;;;13.72;56.73
11808;BME280;5961;42.640;23.380;2023-03-21T00:20:55;93876.53;;;13.73;56.85
11808;BME280;5961;42.640;23.380;2023-03-21T00:23:23;93874.09;;;13.65;56.76
11808;BME280;5961;42.640;23.380;2023-03-21T00:25:49;93884.53;;;13.73;54.82
11808;BME280;5961;42.640;23.380;2023-03-21T00:28:16;93873.84;;;13.73;54.48
11808;BME280;5961;42.640;23.380;2023-03-21T00:30:44;93879.53;;;13.72;54.27
11808;BME280;5961;42.640;23.380;2023-03-21T00:33:11;93882.44;;;13.63;54.48
11808;BME280;5961;42.640;23.380;2023-03-21T00:35:38;93886.53;;;13.57;55.16
11808;BME280;5961;42.640;23.380;2023-03-21T00:38:06;93890.59;;;13.51;55.42
11808;BME280;5961;42.640;23.380;2023-03-21T00:40:34;93888.78;;;13.36;56.31
11808;BME280;5961;42.640;23.380;2023-03-21T00:43:01;93893.66;;;13.31;56.64
11808;BME280;5961;42.640;23.380;2023-03-21T00:45:28;93889.22;;;13.19;57.52
11808;BME280;5961;42.640;23.380;2023-03-21T00:47:57;93896.13;;;13.20;57.51
11808;BME280;5961;42.640;23.380;2023-03-21T00:50:24;93891.81;;;13.15;57.91
11808;BME280;5961;42.640;23.380;2023-03-21T00:52:51;93886.84;;;13.14;58.49
11808;BME280;5961;42.640;23.380;2023-03-21T00:55:18;93883.31;;;13.10;58.23
11808;BME280;5961;42.640;23.380;2023-03-21T00:57:45;93882.22;;;13.11;58.58
11808;BME280;5961;42.640;23.380;2023-03-21T01:00:14;93872.00;;;12.97;58.78
11808;BME280;5961;42.640;23.380;2023-03-21T01:02:42;93875.44;;;12.98;59.12
11808;BME280;5961;42.640;23.380;2023-03-21T01:05:26;93878.66;;;12.88;59.25
11808;BME280;5961;42.640;23.380;2023-03-21T01:08:07;93868.63;;;12.81;59.70
11808;BME280;5961;42.640;23.380;2023-03-21T01:10:37;93872.47;;;12.84;59.90
11808;BME280;5961;42.640;23.380;2023-03-21T01:13:04;93880.03;;;12.82;59.88
11808;BME280;5961;42.640;23.380;2023-03-21T01:15:30;93885.38;;;12.82;59.75
11808;BME280;5961;42.640;23.380;2023-03-21T01:17:57;93876.25;;;12.83;59.70
11808;BME280;5961;42.640;23.380;2023-03-21T01:20:25;93873.59;;;12.83;59.83
11808;BME280;5961;42.640;23.380;2023-03-21T01:22:52;93848.03;;;12.62;59.77
11808;BME280;5961;42.640;23.380;2023-03-21T01:25:19;93868.81;;;12.73;59.81
11808;BME280;5961;42.640;23.380;2023-03-21T01:27:45;93862.97;;;12.67;59.87
11808;BME280;5961;42.640;23.380;2023-03-21T01:30:12;93859.53;;;12.66;60.08
11808;BME280;5961;42.640;23.380;2023-03-21T01:32:39;93866.00;;;12.65;60.15
11808;BME280;5961;42.640;23.380;2023-03-21T01:35:06;93868.91;;;12.60;60.25
11808;BME280;5961;42.640;23.380;2023-03-21T01:37:34;93874.81;;;12.70;60.13
11808;BME280;5961;42.640;23.380;2023-03-21T01:40:01;93867.53;;;12.66;60.07
11808;BME280;5961;42.640;23.380;2023-03-21T01:42:29;93868.91;;;12.60;60.44
11808;BME280;5961;42.640;23.380;2023-03-21T01:44:58;93819.19;;;12.14;60.85
11808;BME280;5961;42.640;23.380;2023-03-21T01:47:25;93856.25;;;12.38;60.95
11808;BME280;5961;42.640;23.380;2023-03-21T01:49:55;93866.38;;;12.48;60.99
11808;BME280;5961;42.640;23.380;2023-03-21T01:52:25;93868.91;;;12.41;61.44
11808;BME280;5961;42.640;23.380;2023-03-21T01:54:55;93887.88;;;12.40;61.11
11808;BME280;5961;42.640;23.380;2023-03-21T01:57:26;93870.00;;;12.40;61.46
11808;BME280;5961;42.640;23.380;2023-03-21T01:59:58;93865.19;;;12.30;61.30
11808;BME280;5961;42.640;23.380;2023-03-21T02:02:38;93862.28;;;12.35;60.92
11808;BME280;5961;42.640;23.380;2023-03-21T02:05:16;93870.47;;;12.27;61.00
11808;BME280;5961;42.640;23.380;2023-03-21T02:07:44;93860.84;;;12.22;61.28
11808;BME280;5961;42.640;23.380;2023-03-21T02:10:14;93865.06;;;12.23;60.92
11808;BME280;5961;42.640;23.380;2023-03-21T02:12:42;93857.06;;;12.23;61.08
11808;BME280;5961;42.640;23.380;2023-03-21T02:15:10;93857.41;;;12.22;60.79
11808;BME280;5961;42.640;23.380;2023-03-21T02:17:42;93856.19;;;12.19;60.75
11808;BME280;5961;42.640;23.380;2023-03-21T02:23:48;93851.97;;;12.18;60.34
11808;BME280;5961;42.640;23.380;2023-03-21T02:26:40;93843.16;;;12.14;60.62
11808;BME280;5961;42.640;23.380;2023-03-21T02:29:24;93805.47;;;11.81;60.31
11808;BME280;5961;42.640;23.380;2023-03-21T02:32:05;93839.34;;;12.15;60.17
11808;BME280;5961;42.640;23.380;2023-03-21T02:34:55;93845.72;;;12.26;59.71
11808;BME280;5961;42.640;23.380;2023-03-21T02:37:31;93843.06;;;12.26;59.87
11808;BME280;5961;42.640;23.380;2023-03-21T02:40:07;93850.59;;;12.24;59.97
11808;BME280;5961;42.640;23.380;2023-03-21T02:42:43;93848.22;;;12.19;59.87
11808;BME280;5961;42.640;23.380;2023-03-21T02:45:15;93839.34;;;12.15;59.00
11808;BME280;5961;42.640;23.380;2023-03-21T02:47:45;93846.84;;;12.09;58.67
11808;BME280;5961;42.640;23.380;2023-03-21T02:50:15;93844.09;;;12.06;58.73
11808;BME280;5961;42.640;23.380;2023-03-21T02:52:46;93836.97;;;12.10;58.85
11808;BME280;5961;42.640;23.380;2023-03-21T02:55:17;93839.78;;;12.17;58.53
11808;BME280;5961;42.640;23.380;2023-03-21T02:57:46;93847.88;;;12.21;59.31
11808;BME280;5961;42.640;23.380;2023-03-21T03:00:18;93848.22;;;12.19;59.64
11808;BME280;5961;42.640;23.380;2023-03-21T03:02:46;93832.63;;;12.21;59.66
11808;BME280;5961;42.640;23.380;2023-03-21T03:05:16;93839.94;;;12.24;59.88
11808;BME280;5961;42.640;23.380;2023-03-21T03:07:57;93829.28;;;12.24;59.58
11808;BME280;5961;42.640;23.380;2023-03-21T03:10:49;93849.28;;;12.34;60.05
11808;BME280;5961;42.640;23.380;2023-03-21T03:13:30;93849.91;;;12.27;59.98
11808;BME280;5961;42.640;23.380;2023-03-21T03:16:06;93813.59;;;12.03;60.42
11808;BME280;5961;42.640;23.380;2023-03-21T03:18:47;93824.78;;;11.93;61.28
11808;BME280;5961;42.640;23.380;2023-03-21T03:21:19;93843.94;;;12.15;61.47
11808;BME280;5961;42.640;23.380;2023-03-21T03:23:53;93846.59;;;12.15;61.31
11808;BME280;5961;42.640;23.380;2023-03-21T03:26:24;93835.00;;;12.07;61.48
11808;BME280;5961;42.640;23.380;2023-03-21T03:28:53;93807.25;;;11.92;61.26
11808;BME280;5961;42.640;23.380;2023-03-21T03:31:25;93813.50;;;12.00;61.81
11808;BME280;5961;42.640;23.380;2023-03-21T03:33:54;93834.28;;;12.10;61.38
11808;BME280;5961;42.640;23.380;2023-03-21T03:36:23;93847.19;;;12.08;62.05
11808;BME280;5961;42.640;23.380;2023-03-21T03:38:53;93846.34;;;12.04;62.22
11808;BME280;5961;42.640;23.380;2023-03-21T03:41:24;93800.66;;;11.71;62.21
11808;BME280;5961;42.640;23.380;2023-03-21T03:43:54;93839.44;;;12.03;62.25
11808;BME280;5961;42.640;23.380;2023-03-21T03:46:26;93845.81;;;12.14;61.55
11808;BME280;5961;42.640;23.380;2023-03-21T03:48:55;93850.88;;;12.19;62.18
11808;BME280;5961;42.640;23.380;2023-03-21T03:51:27;93847.34;;;12.15;62.03
11808;BME280;5961;42.640;23.380;2023-03-21T03:53:59;93850.69;;;12.12;62.09
11808;BME280;5961;42.640;23.380;2023-03-21T03:56:30;93849.41;;;12.06;62.86
11808;BME280;5961;42.640;23.380;2023-03-21T03:58:57;93846.94;;;11.97;62.80
11808;BME280;5961;42.640;23.380;2023-03-21T04:01:23;93838.44;;;11.92;62.42
11808;BME280;5961;42.640;23.380;2023-03-21T04:03:51;93852.25;;;11.82;62.48
11808;BME280;5961;42.640;23.380;2023-03-21T04:06:18;93852.19;;;11.78;61.36
11808;BME280;5961;42.640;23.380;2023-03-21T04:08:46;93854.81;;;11.63;62.03
11808;BME280;5961;42.640;23.380;2023-03-21T04:11:14;93855.13;;;11.61;62.04
11808;BME280;5961;42.640;23.380;2023-03-21T04:13:41;93845.19;;;11.58;62.44
11808;BME280;5961;42.640;23.380;2023-03-21T04:16:08;93847.50;;;11.60;62.11
11808;BME280;5961;42.640;23.380;2023-03-21T04:18:36;93841.06;;;11.61;61.63
11808;BME280;5961;42.640;23.380;2023-03-21T04:21:07;93843.72;;;11.61;61.72
11808;BME280;5961;42.640;23.380;2023-03-21T04:23:35;93844.50;;;11.61;61.66
11808;BME280;5961;42.640;23.380;2023-03-21T04:26:02;93834.63;;;11.62;61.59
11808;BME280;5961;42.640;23.380;2023-03-21T04:28:32;93833.03;;;11.73;61.68
11808;BME280;5961;42.640;23.380;2023-03-21T04:31:00;93838.09;;;11.78;61.65
11808;BME280;5961;42.640;23.380;2023-03-21T04:33:27;93804.94;;;11.60;61.80
11808;BME280;5961;42.640;23.380;2023-03-21T04:35:54;93822.97;;;11.82;61.80
11808;BME280;5961;42.640;23.380;2023-03-21T04:38:21;93832.41;;;11.95;61.92
11808;BME280;5961;42.640;23.380;2023-03-21T04:40:48;93837.31;;;11.93;61.87
11808;BME280;5961;42.640;23.380;2023-03-21T04:43:14;93820.72;;;11.68;61.86
11808;BME280;5961;42.640;23.380;2023-03-21T04:45:42;93843.44;;;11.78;61.90
11808;BME280;5961;42.640;23.380;2023-03-21T04:48:09;93842.59;;;11.62;62.56
11808;BME280;5961;42.640;23.380;2023-03-21T04:50:38;93846.53;;;11.52;62.78
11808;BME280;5961;42.640;23.380;2023-03-21T04:53:05;93840.50;;;11.39;63.61
11808;BME280;5961;42.640;23.380;2023-03-21T04:55:31;93836.06;;;11.43;63.16
11808;BME280;5961;42.640;23.380;2023-03-21T04:57:58;93829.72;;;11.32;63.54
11808;BME280;5961;42.640;23.380;2023-03-21T05:00:25;93847.97;;;11.34;63.71
11808;BME280;5961;42.640;23.380;2023-03-21T05:02:53;93850.06;;;11.40;63.50
11808;BME280;5961;42.640;23.380;2023-03-21T05:05:22;93857.34;;;11.43;63.14
11808;BME280;5961;42.640;23.380;2023-03-21T05:07:49;93852.72;;;11.40;63.24
11808;BME280;5961;42.640;23.380;2023-03-21T05:10:16;93848.69;;;11.46;63.41
11808;BME280;5961;42.640;23.380;2023-03-21T05:12:42;93856.41;;;11.51;63.66
11808;BME280;5961;42.640;23.380;2023-03-21T05:15:09;93858.84;;;11.56;63.61
11808;BME280;5961;42.640;23.380;2023-03-21T05:17:36;93859.63;;;11.57;63.77
11808;BME280;5961;42.640;23.380;2023-03-21T05:20:05;93863.47;;;11.60;64.57
11808;BME280;5961;42.640;23.380;2023-03-21T05:22:34;93856.50;;;11.55;62.84
11808;BME280;5961;42.640;23.380;2023-03-21T05:25:06;93868.34;;;11.57;62.12
11808;BME280;5961;42.640;23.380;2023-03-21T05:27:34;93854.97;;;11.54;62.45
11808;BME280;5961;42.640;23.380;2023-03-21T05:30:04;93848.97;;;11.57;61.98
11808;BME280;5961;42.640;23.380;2023-03-21T05:32:31;93865.00;;;11.61;61.63
11808;BME280;5961;42.640;23.380;2023-03-21T05:34:58;93863.28;;;11.52;61.59
11808;BME280;5961;42.640;23.380;2023-03-21T05:37:27;93848.75;;;11.34;63.50
11808;BME280;5961;42.640;23.380;2023-03-21T05:39:54;93857.16;;;11.36;62.56
11808;BME280;5961;42.640;23.380;2023-03-21T05:42:21;93862.00;;;11.46;62.12
11808;BME280;5961;42.640;23.380;2023-03-21T05:44:47;93861.72;;;11.51;62.76
11808;BME280;5961;42.640;23.380;2023-03-21T05:47:15;93850.66;;;11.49;62.59
11808;BME280;5961;42.640;23.380;2023-03-21T05:49:43;93860.13;;;11.63;62.41
11808;BME280;5961;42.640;23.380;2023-03-21T05:52:11;93854.56;;;11.68;62.63
11808;BME280;5961;42.640;23.380;2023-03-21T05:54:40;93845.13;;;11.70;61.90
11808;BME280;5961;42.640;23.380;2023-03-21T05:57:07;93854.75;;;11.75;61.73
11808;BME280;5961;42.640;23.380;2023-03-21T05:59:34;93853.13;;;11.86;60.75
11808;BME280;5961;42.640;23.380;2023-03-21T06:02:00;93834.66;;;11.93;60.71
11808;BME280;5961;42.640;23.380;2023-03-21T06:04:27;93838.16;;;11.97;61.21
11808;BME280;5961;42.640;23.380;2023-03-21T06:06:54;93831.13;;;11.89;61.35
11808;BME280;5961;42.640;23.380;2023-03-21T06:09:21;93828.38;;;12.01;61.58
11808;BME280;5961;42.640;23.380;2023-03-21T06:11:51;93836.53;;;12.08;61.43
11808;BME280;5961;42.640;23.380;2023-03-21T06:14:18;93829.84;;;12.14;61.60
11808;BME280;5961;42.640;23.380;2023-03-21T06:16:45;93830.75;;;12.22;61.71
11808;BME280;5961;42.640;23.380;2023-03-21T06:19:12;93830.06;;;12.25;62.37
11808;BME280;5961;42.640;23.380;2023-03-21T06:21:39;93823.00;;;12.32;62.15
11808;BME280;5961;42.640;23.380;2023-03-21T06:24:06;93815.00;;;12.32;62.20
11808;BME280;5961;42.640;23.380;2023-03-21T06:26:33;93832.78;;;12.44;62.06
11808;BME280;5961;42.640;23.380;2023-03-21T06:29:01;93823.72;;;12.48;61.64
11808;BME280;5961;42.640;23.380;2023-03-21T06:31:28;93827.75;;;12.58;61.31
11808;BME280;5961;42.640;23.380;2023-03-21T06:33:55;93781.28;;;12.40;61.32
11808;BME280;5961;42.640;23.380;2023-03-21T06:36:22;93820.81;;;12.73;61.53
11808;BME280;5961;42.640;23.380;2023-03-21T06:38:48;93829.66;;;12.77;63.23
11808;BME280;5961;42.640;23.380;2023-03-21T06:41:15;93832.13;;;12.85;62.55
11808;BME280;5961;42.640;23.380;2023-03-21T06:43:42;93778.94;;;12.54;62.44
11808;BME280;5961;42.640;23.380;2023-03-21T06:46:10;93828.91;;;12.95;62.28
11808;BME280;5961;42.640;23.380;2023-03-21T06:48:37;93842.44;;;13.06;62.01
11808;BME280;5961;42.640;23.380;2023-03-21T06:51:09;93847.16;;;13.12;62.04
11808;BME280;5961;42.640;23.380;2023-03-21T06:53:36;93849.13;;;13.15;60.99
11808;BME280;5961;42.640;23.380;2023-03-21T06:56:03;93853.84;;;13.22;60.64
11808;BME280;5961;42.640;23.380;2023-03-21T06:58:30;93846.69;;;13.26;60.22
11808;BME280;5961;42.640;23.380;2023-03-21T07:00:57;93849.84;;;13.32;59.24
11808;BME280;5961;42.640;23.380;2023-03-21T07:03:25;93841.88;;;13.35;59.37
11808;BME280;5961;42.640;23.380;2023-03-21T07:05:53;93851.50;;;13.40;59.19
11808;BME280;5961;42.640;23.380;2023-03-21T07:08:20;93859.19;;;13.45;58.19
11808;BME280;5961;42.640;23.380;2023-03-21T07:10:47;93862.38;;;13.50;58.91
11808;BME280;5961;42.640;23.380;2023-03-21T07:13:14;93860.97;;;13.56;59.67
11808;BME280;5961;42.640;23.380;2023-03-21T07:15:41;93858.00;;;13.61;59.00
11808;BME280;5961;42.640;23.380;2023-03-21T07:18:08;93854.25;;;13.66;58.76
11808;BME280;5961;42.640;23.380;2023-03-21T07:20:37;93841.66;;;13.66;58.28
11808;BME280;5961;42.640;23.380;2023-03-21T07:23:04;93869.34;;;13.78;58.59
11808;BME280;5961;42.640;23.380;2023-03-21T07:25:31;93865.97;;;13.81;57.78
11808;BME280;5961;42.640;23.380;2023-03-21T07:27:58;93877.47;;;13.85;57.61
11808;BME280;5961;42.640;23.380;2023-03-21T07:30:25;93863.06;;;13.89;56.60
11808;BME280;5961;42.640;23.380;2023-03-21T07:32:52;93862.75;;;13.94;56.45
11808;BME280;5961;42.640;23.380;2023-03-21T07:35:19;93862.75;;;13.94;56.33
11808;BME280;5961;42.640;23.380;2023-03-21T07:37:47;93859.44;;;14.01;56.03
11808;BME280;5961;42.640;23.380;2023-03-21T07:40:14;93842.16;;;13.95;55.97
11808;BME280;5961;42.640;23.380;2023-03-21T07:42:41;93853.50;;;14.11;54.83
11808;BME280;5961;42.640;23.380;2023-03-21T07:45:09;93835.44;;;14.04;54.81
11808;BME280;5961;42.640;23.380;2023-03-21T07:47:37;93850.50;;;14.16;55.30
11808;BME280;5961;42.640;23.380;2023-03-21T07:50:04;93835.97;;;14.13;55.50
11808;BME280;5961;42.640;23.380;2023-03-21T07:52:31;93842.91;;;14.18;55.57
11808;BME280;5961;42.640;23.380;2023-03-21T07:54:59;93851.34;;;14.20;55.09
11808;BME280;5961;42.640;23.380;2023-03-21T07:57:26;93859.44;;;14.27;55.20
11808;BME280;5961;42.640;23.380;2023-03-21T07:59:52;93831.34;;;14.10;55.63
11808;BME280;5961;42.640;23.380;2023-03-21T08:02:19;93860.00;;;14.36;55.59
11808;BME280;5961;42.640;23.380;2023-03-21T08:04:46;93852.44;;;14.42;55.61
11808;BME280;5961;42.640;23.380;2023-03-21T08:07:13;93851.31;;;14.43;55.63
11808;BME280;5961;42.640;23.380;2023-03-21T08:09:41;93857.84;;;14.45;55.91
11808;BME280;5961;42.640;23.380;2023-03-21T08:12:10;93857.84;;;14.45;55.78
11808;BME280;5961;42.640;23.380;2023-03-21T08:14:37;93795.00;;;14.06;55.50
11808;BME280;5961;42.640;23.380;2023-03-21T08:17:04;93862.19;;;14.53;55.24
11808;BME280;5961;42.640;23.380;2023-03-21T08:19:33;93852.66;;;14.56;55.61
11808;BME280;5961;42.640;23.380;2023-03-21T08:22:02;93858.47;;;14.61;55.74
11808;BME280;5961;42.640;23.380;2023-03-21T08:24:30;93853.19;;;14.65;55.55
11808;BME280;5961;42.640;23.380;2023-03-21T08:26:58;93846.72;;;14.69;55.19
11808;BME280;5961;42.640;23.380;2023-03-21T08:29:26;93844.88;;;14.73;54.71
11808;BME280;5961;42.640;23.380;2023-03-21T08:31:53;93841.53;;;14.80;54.89
11808;BME280;5961;42.640;23.380;2023-03-21T08:34:20;93836.25;;;14.87;54.44
11808;BME280;5961;42.640;23.380;2023-03-21T08:36:47;93821.63;;;14.77;54.32
11808;BME280;5961;42.640;23.380;2023-03-21T08:39:14;93837.81;;;14.88;53.95
11808;BME280;5961;42.640;23.380;2023-03-21T08:41:40;93847.88;;;14.98;53.62
11808;BME280;5961;42.640;23.380;2023-03-21T08:44:08;93850.59;;;15.02;53.28
11808;BME280;5961;42.640;23.380;2023-03-21T08:46:36;93846.78;;;15.03;53.12
11808;BME280;5961;42.640;23.380;2023-03-21T08:49:03;93850.28;;;15.07;53.17
11808;BME280;5961;42.640;23.380;2023-03-21T08:51:30;93850.31;;;15.10;52.85
11808;BME280;5961;42.640;23.380;2023-03-21T08:53:58;93843.47;;;15.13;52.13
11808;BME280;5961;42.640;23.380;2023-03-21T08:56:24;93821.16;;;15.02;52.07
11808;BME280;5961;42.640;23.380;2023-03-21T08:58:51;93845.09;;;15.21;52.73
11808;BME280;5961;42.640;23.380;2023-03-21T09:01:18;93798.13;;;14.94;52.47
11808;BME280;5961;42.640;23.380;2023-03-21T09:03:46;93846.28;;;15.27;52.15
11808;BME280;5961;42.640;23.380;2023-03-21T09:06:13;93835.53;;;15.20;51.88
11808;BME280;5961;42.640;23.380;2023-03-21T09:08:40;93788.97;;;14.95;51.83
11808;BME280;5961;42.640;23.380;2023-03-21T09:11:08;93833.72;;;15.31;51.98
11808;BME280;5961;42.640;23.380;2023-03-21T09:13:34;93833.34;;;15.32;52.04
11808;BME280;5961;42.640;23.380;2023-03-21T09:16:01;93833.78;;;15.34;51.95
11808;BME280;5961;42.640;23.380;2023-03-21T09:18:29;93836.13;;;15.39;51.91
11808;BME280;5961;42.640;23.380;2023-03-21T09:21:11;93833.09;;;15.41;51.79
11808;BME280;5961;42.640;23.380;2023-03-21T09:23:40;93822.38;;;15.41;51.70
11808;BME280;5961;42.640;23.380;2023-03-21T09:26:09;93808.16;;;15.37;51.45
11808;BME280;5961;42.640;23.380;2023-03-21T09:28:36;93816.38;;;15.51;51.07
11808;BME280;5961;42.640;23.380;2023-03-21T09:31:04;93811.41;;;15.53;51.03
11808;BME280;5961;42.640;23.380;2023-03-21T09:33:33;93811.88;;;15.59;50.36
11808;BME280;5961;42.640;23.380;2023-03-21T09:36:00;93789.19;;;15.49;50.26
11808;BME280;5961;42.640;23.380;2023-03-21T09:38:35;93803.53;;;15.67;49.76
11808;BME280;5961;42.640;23.380;2023-03-21T09:41:16;93768.53;;;15.50;49.83
11808;BME280;5961;42.640;23.380;2023-03-21T09:43:57;93791.31;;;15.73;49.92
11808;BME280;5961;42.640;23.380;2023-03-21T09:46:35;93761.31;;;15.57;49.74
11808;BME280;5961;42.640;23.380;2023-03-21T09:49:06;93780.59;;;15.73;49.20
11808;BME280;5961;42.640;23.380;2023-03-21T09:51:39;93783.75;;;15.82;49.47
11808;BME280;5961;42.640;23.380;2023-03-21T09:54:12;93786.06;;;15.87;48.90
11808;BME280;5961;42.640;23.380;2023-03-21T09:56:44;93786.09;;;15.91;48.99
11808;BME280;5961;42.640;23.380;2023-03-21T09:59:20;93775.72;;;15.82;49.73
11808;BME280;5961;42.640;23.380;2023-03-21T10:01:48;93809.84;;;15.92;50.21
11808;BME280;5961;42.640;23.380;2023-03-21T10:04:16;93784.59;;;15.93;51.32
11808;BME280;5961;42.640;23.380;2023-03-21T10:06:50;93786.13;;;15.95;51.54
11808;BME280;5961;42.640;23.380;2023-03-21T10:09:21;93743.50;;;15.75;51.78
11808;BME280;5961;42.640;23.380;2023-03-21T10:11:51;93776.66;;;16.04;51.66
11808;BME280;5961;42.640;23.380;2023-03-21T10:14:23;93773.63;;;16.09;51.02
11808;BME280;5961;42.640;23.380;2023-03-21T10:16:56;93761.75;;;16.14;50.91
11808;BME280;5961;42.640;23.380;2023-03-21T10:19:23;93762.59;;;16.21;50.38
11808;BME280;5961;42.640;23.380;2023-03-21T10:21:52;93758.78;;;16.29;50.60
11808;BME280;5961;42.640;23.380;2023-03-21T10:24:23;93721.19;;;16.15;50.50
11808;BME280;5961;42.640;23.380;2023-03-21T10:26:51;93745.81;;;16.38;49.04
11808;BME280;5961;42.640;23.380;2023-03-21T10:29:21;93762.75;;;16.50;49.42
11808;BME280;5961;42.640;23.380;2023-03-21T10:31:50;93755.16;;;16.55;49.67
11808;BME280;5961;42.640;23.380;2023-03-21T10:34:26;93769.78;;;16.65;48.16
11808;BME280;5961;42.640;23.380;2023-03-21T10:36:55;93769.00;;;16.64;48.26
11808;BME280;5961;42.640;23.380;2023-03-21T10:39:27;93766.75;;;16.73;46.39
11808;BME280;5961;42.640;23.380;2023-03-21T10:41:56;93752.50;;;16.66;44.98
11808;BME280;5961;42.640;23.380;2023-03-21T10:44:28;93775.22;;;16.82;44.97
11808;BME280;5961;42.640;23.380;2023-03-21T10:46:58;93768.69;;;16.83;43.97
11808;BME280;5961;42.640;23.380;2023-03-21T10:49:29;93762.56;;;16.83;44.00
11808;BME280;5961;42.640;23.380;2023-03-21T10:51:58;93758.34;;;16.85;43.76
11808;BME280;5961;42.640;23.380;2023-03-21T10:54:31;93759.91;;;16.93;44.32
11808;BME280;5961;42.640;23.380;2023-03-21T10:57:02;93753.41;;;16.98;43.85
11808;BME280;5961;42.640;23.380;2023-03-21T10:59:36;93758.41;;;17.03;43.50
11808;BME280;5961;42.640;23.380;2023-03-21T11:02:04;93749.97;;;17.08;44.11
11808;BME280;5961;42.640;23.380;2023-03-21T11:04:32;93741.94;;;17.12;43.42
11808;BME280;5961;42.640;23.380;2023-03-21T11:07:02;93734.28;;;17.10;44.00
11808;BME280;5961;42.640;23.380;2023-03-21T11:09:45;93735.81;;;17.18;43.09
11808;BME280;5961;42.640;23.380;2023-03-21T11:12:13;93733.94;;;17.22;43.21
11808;BME280;5961;42.640;23.380;2023-03-21T11:14:42;93733.91;;;17.26;43.35
11808;BME280;5961;42.640;23.380;2023-03-21T11:17:21;93741.63;;;17.31;43.46
11808;BME280;5961;42.640;23.380;2023-03-21T11:19:50;93732.78;;;17.34;42.48
11808;BME280;5961;42.640;23.380;2023-03-21T11:22:19;93736.22;;;17.38;42.16
11808;BME280;5961;42.640;23.380;2023-03-21T11:24:49;93723.22;;;17.40;42.63
11808;BME280;5961;42.640;23.380;2023-03-21T11:27:17;93719.34;;;17.41;41.23
11808;BME280;5961;42.640;23.380;2023-03-21T11:29:45;93723.22;;;17.54;41.07
11808;BME280;5961;42.640;23.380;2023-03-21T11:32:20;93720.16;;;17.59;41.46
11808;BME280;5961;42.640;23.380;2023-03-21T11:34:49;93720.19;;;17.66;40.49
11808;BME280;5961;42.640;23.380;2023-03-21T11:37:20;93710.22;;;17.74;39.41
11808;BME280;5961;42.640;23.380;2023-03-21T11:39:54;93707.91;;;17.83;40.17
11808;BME280;5961;42.640;23.380;2023-03-21T11:42:29;93696.38;;;17.82;40.58
11808;BME280;5961;42.640;23.380;2023-03-21T11:45:09;93694.06;;;17.84;39.47
11808;BME280;5961;42.640;23.380;2023-03-21T11:47:37;93655.25;;;17.50;39.28
11808;BME280;5961;42.640;23.380;2023-03-21T11:50:17;93692.53;;;17.83;39.53
11808;BME280;5961;42.640;23.380;2023-03-21T11:52:51;93686.00;;;17.77;39.72
11808;BME280;5961;42.640;23.380;2023-03-21T11:55:31;93691.38;;;17.84;39.31
11808;BME280;5961;42.640;23.380;2023-03-21T11:58:13;93684.84;;;17.78;39.06
11808;BME280;5961;42.640;23.380;2023-03-21T12:00:47;93691.75;;;17.86;38.80
11808;BME280;5961;42.640;23.380;2023-03-21T12:03:58;93678.72;;;17.85;38.67
11808;BME280;5961;42.640;23.380;2023-03-21T12:06:33;93681.75;;;17.90;39.13
11808;BME280;5961;42.640;23.380;2023-03-21T12:12:02;93672.16;;;17.93;39.02
11808;BME280;5961;42.640;23.380;2023-03-21T12:14:38;93657.94;;;17.92;38.96
11808;BME280;5961;42.640;23.380;2023-03-21T12:17:17;93677.94;;;17.95;39.17
11808;BME280;5961;42.640;23.380;2023-03-21T12:19:56;93667.94;;;17.95;39.19
11808;BME280;5961;42.640;23.380;2023-03-21T12:22:37;93672.94;;;17.93;38.94
11808;BME280;5961;42.640;23.380;2023-03-21T12:25:10;93657.19;;;17.85;38.84
11808;BME280;5961;42.640;23.380;2023-03-21T12:27:49;93651.06;;;17.81;39.10
11808;BME280;5961;42.640;23.380;2023-03-21T12:30:29;93658.34;;;17.87;38.96
11808;BME280;5961;42.640;23.380;2023-03-21T12:33:19;93659.88;;;17.85;38.97
11808;BME280;5961;42.640;23.380;2023-03-21T12:35:58;93657.19;;;17.85;38.90
11808;BME280;5961;42.640;23.380;2023-03-21T12:38:38;93654.13;;;17.83;39.34
11808;BME280;5961;42.640;23.380;2023-03-21T12:41:18;93644.94;;;17.77;38.47
11808;BME280;5961;42.640;23.380;2023-03-21T12:43:53;93643.75;;;17.81;38.89
11808;BME280;5961;42.640;23.380;2023-03-21T12:46:25;93649.50;;;17.83;38.95
11808;BME280;5961;42.640;23.380;2023-03-21T12:48:57;93648.72;;;17.86;38.78
11808;BME280;5961;42.640;23.380;2023-03-21T12:51:29;93641.06;;;17.81;39.42
11808;BME280;5961;42.640;23.380;2023-03-21T12:54:06;93633.78;;;17.85;38.63
11808;BME280;5961;42.640;23.380;2023-03-21T12:56:40;93636.44;;;17.92;38.74
11808;BME280;5961;42.640;23.380;2023-03-21T12:59:19;93634.91;;;17.95;38.68
11808;BME280;5961;42.640;23.380;2023-03-21T13:01:50;93591.19;;;17.77;38.45
11808;BME280;5961;42.640;23.380;2023-03-21T13:04:31;93626.44;;;18.07;38.75
11808;BME280;5961;42.640;23.380;2023-03-21T13:07:02;93620.25;;;18.10;38.80
11808;BME280;5961;42.640;23.380;2023-03-21T13:09:34;93616.44;;;18.07;38.12
11808;BME280;5961;42.640;23.380;2023-03-21T13:12:07;93615.28;;;18.12;38.83
11808;BME280;5961;42.640;23.380;2023-03-21T13:14:46;93601.47;;;18.03;39.18
11808;BME280;5961;42.640;23.380;2023-03-21T13:17:21;93595.72;;;17.97;39.11
11808;BME280;5961;42.640;23.380;2023-03-21T13:19:56;93607.22;;;18.01;39.20
11808;BME280;5961;42.640;23.380;2023-03-21T13:22:27;93606.06;;;18.02;39.29